T³ - TableTop Tournaments
Welcome Guest. Please log in or register.
  

Login with nickname/ID and password (Lost password?).
AdvertGames-Island
Follow us:facebooktwitterrss | supportContact

Tournament Overview

Register your own tournamentTo the map

Please select a game system:


"Warhammer 40K"-tournaments in the next months:

DateTournamentLocationSeats
October 2021
2021-10-22CONVENTION APOCALYPSE volume IIIF45450 Donnery14/18
2021-10-22Hanseatic Alliance Open 2021D28329 Bremen128
2021-10-23LGV 666Pkte "Halloween" 2021A8501 Lieboch10/10
2021-10-2340K Cedex: The tournament Volume 2F40400 Meilhancanceled
2021-10-23Tournoi par équipe Roquebrune 23et 24 Octobre 40kF83520 Roquebrune Sur Argens48/60
2021-10-23Petit Conflit d'AutomneF47360 Prayssas14/14
2021-10-23Dice Dropzone Tournament IIID21149 Hamburg43/32
2021-10-23Re-roll 40K - L'entre deux vaguesF64570 Arette29/40
2021-10-23Warhammer 40K Squiggz OktoberD87700 Memmingen28/18
2021-10-23Pax Imperialis II - Skylla 1.2(hot)A2301 Groß-Enzersdorfcanceled
2021-10-2301. Masters of Puppets - Turnier(support)D58453 Witten14/8
2021-10-26War In L'Isle-JourdainF32600 L'isle-Jourdaincanceled
2021-10-30BisousAce Team ChampionshipF78460 Chevreuse22/48
2021-10-31Mirabelle appelle EglantineF76520 Boos41/36
2021-10-31RSL 199 Première EditionF74150 Rumilly16/16
2021-10-31Anniversary Tournament Warhammer 40KF38000 Grenoble45/40
2021-10-31There is Only War 4F69150 Décines-Charpieu13/16
2021-10-319. OCB-Turnier WH40kCH3008 Bern17/14
2021-10-31TTTG 40k Liga 2021 vierter Spieltag(support)A6020 Innsbruck13/16
November 2021
2021-11-06Way to 1st Austrian Grand Tournament(hot)(support)A8700 Leoben58/60
2021-11-064. Nauticup 40kD18299 Laage - Kritzkow27/24
2021-11-06Teams 40K de Novembre à Utopolys samediF59370 Mons En Baroeul34/24
2021-11-0654. Bedburger Scheunenkloppen GT 2000 PunkteD50126 Bergheim Glesch36/30
2021-11-06Tournois 40'000 1v1 1000pts par joueurCH1003 Lausanne4/32
2021-11-07Open de MuretF31600 Lamasquere7/18
2021-11-07Teams 40K de Novembre à Utopolys dimancheF59370 Mons En Baroeul35/24
2021-11-07Be'gore tournament Autumn 2021F65600 Séméac26/34
2021-11-072. Warhammer 40.000 Einsteigerturnier im Outer RimD78532 Tuttlingen22/16
2021-11-07Warhammer 40k Charity Tournament: ReRoll Weekend (TTNRRWE)D87435 Kempten10/10
2021-11-1320. TTS-Cup Warhammer 40.000D04315 Leipzig35/18
2021-11-13Nation Gaming Home 40k – n7 – solo 2000 pointsF75012 Paris53/34
2021-11-13Warmistice 2021F57100 Thionville32/36
2021-11-13Tournoi 2 V 2 40 000 Charente 1000 Pts par joueursF16000 Angoulême44/40
2021-11-13Bembel Clash #1(support)D63697 Hirzenhain42/40
2021-11-1311. Bornichner turnier(support)D09569 Oederan15/12
2021-11-13Tournois du Temple en doubletteF63000 Clermont-Ferrand8/16
2021-11-13Morphy MoshD13125 Berlin13/10
2021-11-1421. TTS-Cup Warhammer 40.000D04315 Leipzig13/18
2021-11-14Isarauen Intermezzo 2021D85221 Dachau39/24
2021-11-14Oheimer WirtshausschlägereiD97508 Obereuerheim19/18
2021-11-20Dice Dust and Rust, 1000pt hybride organisé par Drak'aunisF17300 Rochefort7/18
2021-11-20Games Island - Lord General of Warhammer 40k IVD95032 Hof45/24
2021-11-20IV. Osnabrücker Dosenschießen (Teamturnier/Teamtournament)(hot)D49082 Osnabrück71/52
2021-11-20Battlefield Ratisbona 2021/02D93059 Regensburg31/20
2021-11-2055. Bedburger Scheunenkloppen AB1500D50126 Bergheim Glesch23/30
2021-11-21Fluff&Poésie solo 40k novembreF59200 Tourcoing22/32
2021-11-21TTTG 40k Liga 2021 fünfter SpieltagA6020 Innsbruck1/16
2021-11-26Samain Training CampF04135 Moustier Sainte Marie29/20
2021-11-272. Grandparadice 2021 40k TurnierD34281 Gudensberg (bei Kassel)72/40
2021-11-27Open de l'Isle-JourdainF32600 L'isle-Jourdain16/18
2021-11-27Les princesses en détresseF13109 Simiane-Collongue26/48
2021-11-27GTBN 2021F50483 Saint Gilles0/60
2021-11-27Graz Open - 2(support)A0316 Raaba14/16
2021-11-271.Pozas GrotkickenD53757 Sankt Augustin20/14
2021-11-27WGA #40K Novembre 2021 1250ptsF75012 Paris3/16
2021-11-282. Schlacht im Outer RimD78532 Tuttlingen19/14
2021-11-28Le tournoi Dé Trolls(support)F66350 Toulouges5/18
2021-11-28UniDé XIVCH1400 Yverdon-Les-Bains40/24
December 2021
2021-12-04League Wars 2021/2022 - BIG 4F91000 Evry-Courcouronnes4/32
2021-12-04C3f'or fun & NoëlF42000 Saint Etienne13/32
2021-12-04Doublette 40K de Décembre à Utopolys samediF59370 Mons En Baroeul13/24
2021-12-0456. Bedburger Scheunenkloppen 2000 Punkte GTD50126 Bergheim Glesch42/30
2021-12-05Le Squig of WarF62100 Calais15/18
2021-12-05Solo 40K de Décembre à Utopolys dimancheF59370 Mons En Baroeul13/24
2021-12-11Nation Gaming Home 40k – n8 – solo 1000 pointsF75012 Paris17/34
2021-12-11G.I.M.P. Tournament 7(support)D13086 Berlin62/40
2021-12-11Winter WarB7000 Mons26/20
2021-12-11Morphy Mosh IID10961 Berlin12/10
2021-12-12TTTG 40k Liga 2021 sechster Spieltag(support)A6020 Innsbruck1/16
2021-12-12Sidequest IV - 40K Tag Team TurnierD27568 Bremerhaven17/16
2021-12-19Fluff&Poésie solo 40k DécembreF59200 Tourcoing2/30
January 2022
2022-01-08Warp'Gaming Cup 2022 #1F33520 Bruges59/40
2022-01-08Le DIOT DavisF73000 Barberaz66/56
2022-01-0857. Bedburger Scheunenkloppen Tag-Team-TurnierD50126 Bergheim Glesch53/44
2022-01-15Wtf14F44640 Saint Jean De Boiseau18/18
2022-01-23La confrérie du Bolt'eure Acte 2F27310 Bourg Achard9/32
2022-01-29Tournoi 40k Bannière de l'ombre 2022F49300 Cholet21/24
2022-01-304. Sauerländer Wintersturm (40k)D59757 Arnsberg25/20
February 2022
2022-02-0558. Bedburger Scheunenkloppen Grand TournamentD50126 Bergheim Glesch46/32
2022-02-12IRON WEST 2022 40KF29470 Plougastel Daoulas10/32
March 2022
2022-03-0559. Bedburger Scheunenkloppen AB1500D50126 Bergheim Glesch35/30
2022-03-19FRENCH WARGAME DAY 40K(hot)(group)F38029 Grenoble1219/998
April 2022
2022-04-02Breizh Weekend Apocalyptique 2022(support)F35500 Balaze8/16
2022-04-21The Alpine Cup - Singles(hot)A8700 Leoben61/280
May 2022
2022-05-28Je n'aime que toi petite fleur des champs I. 6vs6F76520 Booscanceled
Calendar
Info: The date of each tournament can be download as an ICS-file by clicking on the date. In addition we offer a complete tournament calendar: ICS (iCal: webcal). What is ICS?

You can subscribe to the calendar with an ICS-compatible software (like Mozilla/Calendar or iCal).

past "Warhammer 40K"-Tournaments (max. the last 20):

DateTournamentLocationSeats
2021-10-17Solo 40K d'Octobre à Utopolys dimancheF59370 Mons En Baroeul14/16
2021-10-17La confrérie du Bolt'eureF27310 Bourg Achard14/16
2021-10-17Warhammer 40.000 Deutsche Meisterschaften 2021D35685 Dillenburg49/60
2021-10-162. Erfurter Puffbohnen-CupD99086 Erfurt29/36
2021-10-16Solo 40K d'Octobre à Utopolys samediF59370 Mons En Baroeulcanceled
2021-10-16Nation Gaming Home 40k – n6 – solo 2000 pointsF75012 Paris32/32
2021-10-1653. Bedburger Scheunenkloppen Ars Bellica 1500D50126 Bergheim Glesch18/18
2021-10-16THE NACHMUND TOURNAMENTF62100 Calais12/12
2021-10-10Er-Hammer3D91054 Erlangen20/20
2021-10-10Fluff&Poésie solo 40k OctobreF59200 Tourcoingcanceled
2021-10-10Double Fun edition 2021B2800 Mechelen28/40
2021-10-10Zweites Team Dislike 40K TurnierD97294 Unterpleichfeld10/12
2021-10-10Adeptus Corsicanum IIIF20200 Ville Di Pietrabugnocanceled
2021-10-10TTTG 40k Liga 2021 dritter SpieltagA6020 Innsbruck14/16
2021-10-093. Black Forest Wars - 2000 Punkte ITC RTTD79211 Denzlingen22/24
2021-10-07Clandé 3F54410 Laneuveville Devant Nancy12/14
2021-10-031. Schlacht im Outer RimD78532 Tuttlingen10/10
2021-10-03Le lyon War Club à OctogonesF69100 Villeurbanne48/48
2021-10-03Double Kikoup 2021F44100 Nantes40/40
2021-10-03In2mitus ResurrectionF31320 Castanet Tolosan60/60
Show complete list


Tabletops: A Call to Arms: Star Fleet | A Fantastic Saga | A Song of Ice & Fire | Adeptus Titanicus | Aeronautica Imperialis | Âge des Escarmouches | Alkemy | Anima Tactics | Arcane Legions | Arena Deathmatch | Arena Rex | Aristeia! | Armageddon (Magora etc.) | Armalion | Armati | Astrahys | AT-43 | Babylon 5 | Batman Miniature Game | Battlefield Evolution | Battlefleet Gothic | BattleTech: Alpha Strike | Behind Omaha | Beyond the Gates of Antares | Black Seas - The Age Of Sail | Blackwater Gulch | Blitz Bowl | Blitzkrieg Commander | Blood & Plunder | Blood Bowl | Blood Red Skies | Blücher | Bolt Action | Briskars | Bushido | By Fire and Sword | Caeris | Carnevale | Celtos | Chronopia | Clan War | Clash of Empires | Classic BattleTech | Confrontation 3/3.5 | Confrontation: AoR | Congo | Conquest - The Last Argument of Kings | Conquest: First Blood | D&D Attack Wing | Dark Age | Darklands | De Bellis Antiquitatis | De Bellis Magistrorum Militum | De Bellis Multitudinis | Dead Man's Hand | Deadzone | DeepWars | Demonworld | Dracula's America | Drakerys | Dreadball | Dropfleet Commander | Dropzone Commander | Dust 1947 | Dust Tactics Battlefield | Dust Warfare | Dystopian Legions | Dystopian Wars | Eden | Epic Armageddon | Ex Illis | Fallout: Wasteland Warfare | Fantasy Warriors | Fearless | Field of Glory | Field of Glory - Ancient and Medieval | Field of Glory - Napoleonic | Field of Glory - Renaissance | Fire and Fury | Firestorm Armada | Firestorm Planetfall | Flames of War | Fleet Commander | Flintloque | Force on Force | Freebooter's Fate | Frères d'Armes | Frostgrave | Furie | Gangs of Mega-City One | Gangs of Rome | Gaslands | Gear Krieg | Godslayer | Godtear | Goetterdaemmerung | Golgotha | Gorkamorka | Guild Ball | Hail Caesar | Heavy Gear Blitz | Hell Dorado | Historical Tabletops (WRG-6th) | Hordes of the Things | Impetus | Infinity | Jovian Chronicles | Judgement | Khârn-Âges | Kings of War | Kings of War Vanguard | Kugelhagel | L'Art de la Guerre | Le Retour des Dieux | Legends of the High Seas | Legends of the Old West | Malifaux | Man O'War | Mars Attacks - The Miniatures Game | Mars: Code Aurora | Marvel Universe Miniature Game | Marvel: Crisis Protocol | MechWarrior: Dark Age | Metropolis | Middle-earth Strategy Battle Game | Monsterpocalypse | Moonstone | Mordheim | Mortal Gods | Mortebrume | Mortem et Gloriam | Muskets & Tomahawks | Mutant Chronicles Miniature Game | Mythic Battles: Pantheon | Necromunda | Nemesis | NetEpic | Okko, Era of the Asagiri | Operation World War Two | Pirates of the Spanish Main | Pulp Alley | Pulp City | Relic Knights | Rezolution | Riot Quest | Rumbleslam | Runewars Miniatures Game | SAGA | Schicksalspfade | Secrets of the Third Reich | Shadow War: Armageddon | ShadowSea | Sharp Practice | Skytear | SMOG, The Thirteenth Hour | Space Hulk | Star Trek: Attack Wing | Star Wars Miniatures | Star Wars: Armada | Star Wars: Imperial Assault | Star Wars: Legion | Star Wars: X-Wing Miniatures Game | Starship Troopers | Steinhagel | Summoners | Tabletop Convention | Tanks | Team Yankee | Test of Honour | The 9th Age: Fantasy Battles | The Drowned Earth | The Uncharted Seas | The Walking Dead: All Out War | Time of Legends: Joan of Arc | Tomorrow's War | Urban War | Victory at Sea | War in the Middle Ages | War of the Ring | Warcanto | Warcaster: Neo-Mechanika | WarGods | Warhammer 30K: The Horus Heresy | Warhammer 40K | Warhammer 40K: Kill Team | Warhammer Age of Sigmar | Warhammer Age of Sigmar: Skirmish | Warhammer Age of Sigmar: Warcry | Warhammer Ancient Battles | Warhammer Fantasy Battles | Warhammer Underworlds | Warlord | Warmachine/Hordes | Warmaster | Warmaster Ancients | Warthrone | Warzone | Wild West Exodus | Wings of Glory | Wolsung SSG | World of Warcraft Miniatures Game | Wrath of Kings


©2004-2021. T³ is operated by Althaus.IT.